createdAt,value
2018-12-29T00:01:02.904Z,13.95
2018-12-29T00:03:29.003Z,12.53
2018-12-29T00:05:55.085Z,13.53
2018-12-29T00:08:21.242Z,10.60
2018-12-29T00:10:47.336Z,14.55
2018-12-29T00:13:13.403Z,13.62
2018-12-29T00:15:39.509Z,10.05
2018-12-29T00:18:05.689Z,15.38
2018-12-29T00:20:31.752Z,13.90
2018-12-29T00:22:57.829Z,13.13
2018-12-29T00:25:23.908Z,12.98
2018-12-29T00:27:49.996Z,15.10
2018-12-29T00:30:16.067Z,12.10
2018-12-29T00:32:43.263Z,15.25
2018-12-29T00:35:09.343Z,14.28
2018-12-29T00:37:35.454Z,14.70
2018-12-29T00:40:01.608Z,14.53
2018-12-29T00:42:27.711Z,14.13
2018-12-29T00:44:53.795Z,11.38
2018-12-29T00:47:19.865Z,16.30
2018-12-29T00:49:45.953Z,14.10
2018-12-29T00:52:12.015Z,15.83
2018-12-29T00:54:38.104Z,14.95
2018-12-29T00:57:04.167Z,17.67
2018-12-29T00:59:30.237Z,16.48
2018-12-29T01:01:56.319Z,13.00
2018-12-29T01:04:22.391Z,17.70
2018-12-29T01:06:48.522Z,14.65
2018-12-29T01:09:14.587Z,13.22
2018-12-29T01:11:40.656Z,12.60
2018-12-29T01:14:08.742Z,14.47
2018-12-29T01:16:34.928Z,15.68
2018-12-29T01:19:01.009Z,15.10
2018-12-29T01:21:27.089Z,11.48
2018-12-29T01:23:53.159Z,14.23
2018-12-29T01:26:19.253Z,15.88
2018-12-29T01:28:45.525Z,12.93
2018-12-29T01:31:11.604Z,10.75
2018-12-29T01:33:37.728Z,13.78
2018-12-29T01:36:03.886Z,21.90
2018-12-29T01:38:29.955Z,11.45
2018-12-29T01:40:56.031Z,13.75
2018-12-29T01:43:22.104Z,12.75
2018-12-29T01:45:48.173Z,18.32
2018-12-29T01:48:14.257Z,14.38
2018-12-29T01:50:40.338Z,14.00
2018-12-29T01:53:06.514Z,11.85
2018-12-29T01:55:32.584Z,22.42
2018-12-29T01:57:58.670Z,18.10
2018-12-29T02:00:24.784Z,14.00
2018-12-29T02:02:50.972Z,20.50
2018-12-29T02:05:17.029Z,17.77
2018-12-29T02:07:43.112Z,14.15
2018-12-29T02:10:09.184Z,14.68
2018-12-29T02:12:35.315Z,16.93
2018-12-29T02:15:01.402Z,19.35
2018-12-29T02:17:27.564Z,14.00
2018-12-29T02:19:54.196Z,14.47
2018-12-29T02:22:20.264Z,14.45
2018-12-29T02:24:46.356Z,16.70
2018-12-29T02:27:12.433Z,14.68
2018-12-29T02:29:38.495Z,17.00
2018-12-29T02:32:04.597Z,17.95
2018-12-29T02:34:30.664Z,17.73
2018-12-29T02:36:56.739Z,18.60
2018-12-29T02:39:22.807Z,16.00
2018-12-29T02:41:48.891Z,18.98
2018-12-29T02:44:15.056Z,16.48
2018-12-29T02:46:41.123Z,19.30
2018-12-29T02:49:07.208Z,17.02
2018-12-29T02:51:33.271Z,19.90
2018-12-29T02:53:59.403Z,18.02
2018-12-29T02:56:25.532Z,14.73
2018-12-29T02:58:51.666Z,19.50
2018-12-29T03:01:17.732Z,20.23
2018-12-29T03:03:43.800Z,19.92
2018-12-29T03:06:09.901Z,16.70
2018-12-29T03:08:36.076Z,18.37
2018-12-29T03:11:02.159Z,21.87
2018-12-29T03:13:28.242Z,26.20
2018-12-29T03:15:54.475Z,25.85
2018-12-29T03:18:20.568Z,18.32
2018-12-29T03:20:46.657Z,21.62
2018-12-29T03:23:12.724Z,20.72
2018-12-29T03:25:38.813Z,28.92
2018-12-29T03:28:04.889Z,24.90
2018-12-29T03:30:31.090Z,25.35
2018-12-29T03:32:57.168Z,26.45
2018-12-29T03:35:23.333Z,23.62
2018-12-29T03:37:50.518Z,25.57
2018-12-29T03:40:16.606Z,23.60
2018-12-29T03:42:42.791Z,24.40
2018-12-29T03:45:08.866Z,27.35
2018-12-29T03:47:34.947Z,27.02
2018-12-29T03:50:01.115Z,34.18
2018-12-29T03:52:27.200Z,26.42
2018-12-29T03:54:53.328Z,30.08
2018-12-29T03:57:19.404Z,31.00
2018-12-29T03:59:45.482Z,36.38
2018-12-29T04:02:11.546Z,29.35
2018-12-29T04:04:37.680Z,33.53
2018-12-29T04:07:03.808Z,31.52
2018-12-29T04:09:31.002Z,28.70
2018-12-29T04:11:57.076Z,31.07
2018-12-29T04:14:23.143Z,32.70
2018-12-29T04:16:49.241Z,30.45
2018-12-29T04:19:15.417Z,25.95
2018-12-29T04:21:41.510Z,26.30
2018-12-29T04:24:07.586Z,26.73
2018-12-29T04:26:33.672Z,30.08
2018-12-29T04:28:59.743Z,30.88
2018-12-29T04:31:25.848Z,27.50
2018-12-29T04:33:51.966Z,26.82
2018-12-29T04:36:18.044Z,28.15
2018-12-29T04:38:44.176Z,30.23
2018-12-29T04:41:10.251Z,27.58
2018-12-29T04:43:36.337Z,32.78
2018-12-29T04:46:05.399Z,25.72
2018-12-29T04:48:30.411Z,28.92
2018-12-29T04:50:56.485Z,23.25
2018-12-29T04:53:22.648Z,27.25
2018-12-29T04:55:48.738Z,23.10
2018-12-29T04:58:14.808Z,23.67
2018-12-29T05:00:40.900Z,23.35
2018-12-29T05:03:06.976Z,25.72
2018-12-29T05:05:33.081Z,28.42
2018-12-29T05:07:59.144Z,24.80
2018-12-29T05:10:25.211Z,22.90
2018-12-29T05:12:51.324Z,24.10
2018-12-29T05:15:17.508Z,29.95
2018-12-29T05:17:43.712Z,25.75
2018-12-29T05:20:09.780Z,27.48
2018-12-29T05:22:35.874Z,30.72
2018-12-29T05:25:02.063Z,24.87
2018-12-29T05:27:28.139Z,34.38
2018-12-29T05:29:54.224Z,31.95
2018-12-29T05:32:20.313Z,29.27
2018-12-29T05:34:46.392Z,45.90
2018-12-29T05:37:12.471Z,30.82
2018-12-29T05:39:38.554Z,49.65
2018-12-29T05:42:04.627Z,89.35
2018-12-29T05:44:30.692Z,47.62
2018-12-29T05:46:56.784Z,33.88
2018-12-29T05:49:22.854Z,45.75
2018-12-29T05:51:48.940Z,42.38
2018-12-29T05:54:15.006Z,55.73
2018-12-29T05:56:41.151Z,34.92
2018-12-29T05:59:07.257Z,43.87
2018-12-29T06:01:33.348Z,39.38
2018-12-29T06:03:59.440Z,41.92
2018-12-29T06:06:25.523Z,43.68
2018-12-29T06:08:51.611Z,50.17
2018-12-29T06:11:17.690Z,59.90
2018-12-29T06:13:43.805Z,55.92
2018-12-29T06:16:09.891Z,55.40
2018-12-29T06:18:35.987Z,42.08
2018-12-29T06:21:02.061Z,52.05
2018-12-29T06:23:28.128Z,43.95
2018-12-29T06:25:54.222Z,51.02
2018-12-29T06:28:20.303Z,49.13
2018-12-29T06:30:46.395Z,34.88
2018-12-29T06:33:12.481Z,50.67
2018-12-29T06:35:38.580Z,80.28
2018-12-29T06:38:06.063Z,80.42
2018-12-29T06:40:33.278Z,54.10
2018-12-29T06:42:59.422Z,68.07
2018-12-29T06:45:25.502Z,62.33
2018-12-29T06:47:51.588Z,62.48
2018-12-29T06:50:17.660Z,51.75
2018-12-29T06:52:43.754Z,58.23
2018-12-29T06:55:09.920Z,53.08
2018-12-29T06:57:35.996Z,45.08
2018-12-29T07:00:04.384Z,52.38
2018-12-29T07:02:30.472Z,61.77
2018-12-29T07:04:56.563Z,56.90
2018-12-29T07:07:22.641Z,53.38
2018-12-29T07:09:48.776Z,48.92
2018-12-29T07:12:14.855Z,50.58
2018-12-29T07:14:40.992Z,46.37
2018-12-29T07:17:07.076Z,50.92
2018-12-29T07:19:33.216Z,55.60
2018-12-29T07:21:59.310Z,65.22
2018-12-29T07:24:25.412Z,59.10
2018-12-29T07:26:51.497Z,67.05
2018-12-29T07:29:17.590Z,64.70
2018-12-29T07:31:43.675Z,69.82
2018-12-29T07:34:09.745Z,82.25
2018-12-29T07:36:35.835Z,64.15
2018-12-29T07:39:04.117Z,64.70
2018-12-29T07:41:30.243Z,70.35
2018-12-29T07:43:56.335Z,63.23
2018-12-29T07:46:22.443Z,76.85
2018-12-29T07:48:48.521Z,58.60
2018-12-29T07:51:14.624Z,157.90
2018-12-29T07:53:40.695Z,63.10
2018-12-29T07:56:06.779Z,64.75
2018-12-29T07:58:32.850Z,62.27
2018-12-29T08:00:58.939Z,61.35
2018-12-29T08:03:25.115Z,68.30
2018-12-29T08:05:51.251Z,63.25
2018-12-29T08:08:17.371Z,65.30
2018-12-29T08:10:43.439Z,62.73
2018-12-29T08:13:09.528Z,70.35
2018-12-29T08:15:35.599Z,57.00
2018-12-29T08:18:01.716Z,68.60
2018-12-29T08:20:27.892Z,65.75
2018-12-29T08:22:53.978Z,62.17
2018-12-29T08:25:20.043Z,60.00
2018-12-29T08:27:46.136Z,66.77
2018-12-29T08:30:12.207Z,58.17
2018-12-29T08:32:38.324Z,57.50
2018-12-29T08:35:04.583Z,70.30
2018-12-29T08:37:30.688Z,69.50
2018-12-29T08:39:56.758Z,61.33
2018-12-29T08:42:22.848Z,58.35
2018-12-29T08:44:48.920Z,35.75
2018-12-29T08:47:15.011Z,55.15
2018-12-29T08:49:41.367Z,52.62
2018-12-29T08:52:07.675Z,48.52
2018-12-29T08:54:33.811Z,52.05
2018-12-29T08:56:59.943Z,55.95
2018-12-29T08:59:26.040Z,45.43
2018-12-29T09:01:52.119Z,41.53
2018-12-29T09:04:18.314Z,50.67
2018-12-29T09:06:44.423Z,41.05
2018-12-29T09:09:10.503Z,46.68
2018-12-29T09:11:36.595Z,47.78
2018-12-29T09:14:02.812Z,42.43
2018-12-29T09:16:28.987Z,49.55
2018-12-29T09:18:55.083Z,45.45
2018-12-29T09:21:21.150Z,48.17
2018-12-29T09:23:47.240Z,39.88
2018-12-29T09:26:13.328Z,55.10
2018-12-29T09:28:39.501Z,32.25
2018-12-29T09:31:05.614Z,42.88
2018-12-29T09:33:31.693Z,43.13
2018-12-29T09:35:57.761Z,49.48
2018-12-29T09:38:23.859Z,42.30
2018-12-29T09:40:49.927Z,50.90
2018-12-29T09:43:16.002Z,42.33
2018-12-29T09:45:42.066Z,42.88
2018-12-29T09:48:08.158Z,34.00
2018-12-29T09:50:34.233Z,40.30
2018-12-29T09:53:00.315Z,38.90
2018-12-29T09:55:26.392Z,36.35
2018-12-29T09:57:52.479Z,32.85
2018-12-29T10:00:18.585Z,39.40
2018-12-29T10:02:44.772Z,39.75
2018-12-29T10:05:10.864Z,34.67
2018-12-29T10:07:36.933Z,42.10
2018-12-29T10:10:03.924Z,33.45
2018-12-29T10:12:29.996Z,32.17
2018-12-29T10:14:56.168Z,41.33
2018-12-29T10:17:26.903Z,36.83
2018-12-29T10:19:50.241Z,38.70
2018-12-29T10:22:16.355Z,37.00
2018-12-29T10:24:42.457Z,36.15
2018-12-29T10:27:08.552Z,38.92
2018-12-29T10:29:34.615Z,31.40
2018-12-29T10:32:00.700Z,40.08
2018-12-29T10:34:26.781Z,30.62
2018-12-29T10:36:52.922Z,32.45
2018-12-29T10:39:20.163Z,34.45
2018-12-29T10:41:46.447Z,30.80
2018-12-29T10:44:12.540Z,40.03
2018-12-29T10:46:38.617Z,33.58
2018-12-29T10:49:04.689Z,34.13
2018-12-29T10:51:30.775Z,33.90
2018-12-29T10:53:56.868Z,34.38
2018-12-29T10:56:22.943Z,36.48
2018-12-29T10:58:49.022Z,33.35
2018-12-29T11:01:15.092Z,35.55
2018-12-29T11:03:41.178Z,33.78
2018-12-29T11:06:07.248Z,34.55
2018-12-29T11:08:33.320Z,37.13
2018-12-29T11:10:59.395Z,33.05
2018-12-29T11:13:25.484Z,35.88
2018-12-29T11:15:51.564Z,34.05
2018-12-29T11:18:17.648Z,40.80
2018-12-29T11:20:43.932Z,33.13
2018-12-29T11:23:09.999Z,29.95
2018-12-29T11:25:36.100Z,29.40
2018-12-29T11:28:02.164Z,29.02
2018-12-29T11:30:28.240Z,29.77
2018-12-29T11:32:54.328Z,36.45
2018-12-29T11:35:20.403Z,27.82
2018-12-29T11:37:46.519Z,28.95
2018-12-29T11:40:12.596Z,33.20
2018-12-29T11:42:38.668Z,33.13
2018-12-29T11:45:04.944Z,35.10
2018-12-29T11:47:31.013Z,39.90
2018-12-29T11:49:57.112Z,35.15
2018-12-29T11:52:23.589Z,36.65
2018-12-29T11:54:49.777Z,33.83
2018-12-29T11:57:15.978Z,31.20
2018-12-29T11:59:42.047Z,35.05
2018-12-29T12:02:08.368Z,37.35
2018-12-29T12:04:34.523Z,29.50
2018-12-29T12:07:00.612Z,38.05
2018-12-29T12:09:26.807Z,33.50
2018-12-29T12:11:52.979Z,31.75
2018-12-29T12:14:19.163Z,39.65
2018-12-29T12:16:45.339Z,35.28
2018-12-29T12:19:11.419Z,36.05
2018-12-29T12:21:37.504Z,35.38
2018-12-29T12:24:03.691Z,39.75
2018-12-29T12:26:29.859Z,28.95
2018-12-29T12:28:56.055Z,32.48
2018-12-29T12:31:22.515Z,35.13
2018-12-29T12:33:48.725Z,30.62
2018-12-29T12:36:14.900Z,34.20
2018-12-29T12:38:41.095Z,37.73
2018-12-29T12:41:07.176Z,37.13
2018-12-29T12:43:33.351Z,32.70
2018-12-29T12:45:59.948Z,27.50
2018-12-29T12:48:26.143Z,30.43
2018-12-29T12:50:52.513Z,32.35
2018-12-29T12:53:18.685Z,30.43
2018-12-29T12:55:45.067Z,26.20
2018-12-29T12:58:11.550Z,25.88
2018-12-29T13:00:38.152Z,26.77
2018-12-29T13:03:04.698Z,32.20
2018-12-29T13:05:30.896Z,34.27
2018-12-29T13:07:56.968Z,27.37
2018-12-29T13:10:23.032Z,29.57
2018-12-29T13:12:49.228Z,30.43
2018-12-29T13:15:15.396Z,33.70
2018-12-29T13:17:41.583Z,29.87
2018-12-29T13:20:07.659Z,37.65
2018-12-29T13:22:33.848Z,28.87
2018-12-29T13:25:00.017Z,32.17
2018-12-29T13:27:26.200Z,29.35
2018-12-29T13:29:52.384Z,34.98
2018-12-29T13:32:18.661Z,30.55
2018-12-29T13:34:44.872Z,28.10
2018-12-29T13:37:10.942Z,29.87
2018-12-29T13:39:37.124Z,31.62
2018-12-29T13:42:03.297Z,27.75
2018-12-29T13:44:29.487Z,26.97
2018-12-29T13:46:55.663Z,26.45
2018-12-29T13:49:21.872Z,33.40
2018-12-29T13:51:48.060Z,26.40
2018-12-29T13:54:14.232Z,22.58
2018-12-29T13:56:40.412Z,28.10
2018-12-29T13:59:06.499Z,29.82
2018-12-29T14:01:32.669Z,28.30
2018-12-29T14:03:58.888Z,26.15
2018-12-29T14:06:24.984Z,28.62
2018-12-29T14:08:51.162Z,28.73
2018-12-29T14:11:17.349Z,31.05
2018-12-29T14:13:43.423Z,46.83
2018-12-29T14:16:09.611Z,157.10
2018-12-29T14:18:35.784Z,207.95
2018-12-29T14:21:02.002Z,118.10
2018-12-29T14:23:28.158Z,116.75
2018-12-29T14:25:54.234Z,31.87
2018-12-29T14:28:20.303Z,33.00
2018-12-29T14:30:46.488Z,27.22
2018-12-29T14:33:12.643Z,30.12
2018-12-29T14:35:38.885Z,28.87
2018-12-29T14:38:05.048Z,33.95
2018-12-29T14:40:31.139Z,37.20
2018-12-29T14:42:57.220Z,27.75
2018-12-29T14:45:23.410Z,28.92
2018-12-29T14:47:49.580Z,30.37
2018-12-29T14:50:15.768Z,34.15
2018-12-29T14:52:42.727Z,21.05
2018-12-29T14:55:28.904Z,29.85
2018-12-29T14:57:55.084Z,28.02
2018-12-29T15:00:21.279Z,24.92
2018-12-29T15:02:47.380Z,24.67
2018-12-29T15:05:13.549Z,25.25
2018-12-29T15:07:39.632Z,26.93
2018-12-29T15:10:06.615Z,24.00
2018-12-29T15:12:32.783Z,24.18
2018-12-29T15:14:58.976Z,21.73
2018-12-29T15:17:25.143Z,19.85
2018-12-29T15:19:51.330Z,25.75
2018-12-29T15:22:17.500Z,24.18
2018-12-29T15:24:44.027Z,26.82
2018-12-29T15:27:10.193Z,26.62
2018-12-29T15:29:36.357Z,26.70
2018-12-29T15:32:02.995Z,22.95
2018-12-29T15:34:29.180Z,32.33
2018-12-29T15:36:55.363Z,29.72
2018-12-29T15:39:21.841Z,32.15
2018-12-29T15:41:48.031Z,23.20
2018-12-29T15:44:14.195Z,24.65
2018-12-29T15:46:40.417Z,26.62
2018-12-29T15:49:06.605Z,21.82
2018-12-29T15:51:32.768Z,22.45
2018-12-29T15:53:58.995Z,25.75
2018-12-29T15:56:25.473Z,24.25
2018-12-29T15:58:51.634Z,26.60
2018-12-29T16:01:18.215Z,22.30
2018-12-29T16:03:44.395Z,27.98
2018-12-29T16:06:10.589Z,28.12
2018-12-29T16:08:36.752Z,26.55
2018-12-29T16:11:02.949Z,23.98
2018-12-29T16:13:29.123Z,53.05
2018-12-29T16:15:55.304Z,42.17
2018-12-29T16:18:21.899Z,36.35
2018-12-29T16:20:53.498Z,30.88
2018-12-29T16:23:16.071Z,32.48
2018-12-29T16:25:42.543Z,22.42
2018-12-29T16:28:08.735Z,23.73
2018-12-29T16:30:35.095Z,26.37
2018-12-29T16:33:01.264Z,27.45
2018-12-29T16:35:27.452Z,33.90
2018-12-29T16:37:54.088Z,23.47
2018-12-29T16:40:20.244Z,25.35
2018-12-29T16:42:47.831Z,20.75
2018-12-29T16:45:14.407Z,27.20
2018-12-29T16:47:40.570Z,32.20
2018-12-29T16:50:07.266Z,25.30
2018-12-29T16:52:33.437Z,32.20
2018-12-29T16:54:59.609Z,28.92
2018-12-29T16:57:25.800Z,27.05
2018-12-29T16:59:51.976Z,34.73
2018-12-29T17:02:18.563Z,27.25
2018-12-29T17:04:44.737Z,28.73
2018-12-29T17:07:10.936Z,29.40
2018-12-29T17:09:37.107Z,25.77
2018-12-29T17:12:03.288Z,24.18
2018-12-29T17:14:30.976Z,27.00
2018-12-29T17:16:57.201Z,28.17
2018-12-29T17:19:23.362Z,26.87
2018-12-29T17:21:49.435Z,30.23
2018-12-29T17:24:15.647Z,29.72
2018-12-29T17:26:41.815Z,25.75
2018-12-29T17:29:07.982Z,30.40
2018-12-29T17:31:34.164Z,29.92
2018-12-29T17:34:00.631Z,29.75
2018-12-29T17:36:26.816Z,32.93
2018-12-29T17:38:53.026Z,38.25
2018-12-29T17:41:19.187Z,34.58
2018-12-29T17:43:45.559Z,39.40
2018-12-29T17:46:11.733Z,30.17
2018-12-29T17:48:37.912Z,33.78
2018-12-29T17:51:03.992Z,40.55
2018-12-29T17:53:30.661Z,60.85
2018-12-29T17:55:56.847Z,26.12
2018-12-29T17:58:23.068Z,27.05
2018-12-29T18:00:49.239Z,23.75
2018-12-29T18:03:15.414Z,24.90
2018-12-29T18:05:41.503Z,23.00
2018-12-29T18:08:07.660Z,29.70
2018-12-29T18:10:33.847Z,27.45
2018-12-29T18:13:00.012Z,26.90
2018-12-29T18:15:26.268Z,30.60
2018-12-29T18:17:52.574Z,25.25
2018-12-29T18:20:18.751Z,27.52
2018-12-29T18:22:44.928Z,23.87
2018-12-29T18:25:11.135Z,28.57
2018-12-29T18:27:37.618Z,23.00
2018-12-29T18:30:04.305Z,20.23
2018-12-29T18:32:30.496Z,28.65
2018-12-29T18:34:56.668Z,29.37
2018-12-29T18:37:22.862Z,22.52
2018-12-29T18:39:49.027Z,20.60
2018-12-29T18:42:15.200Z,24.87
2018-12-29T18:44:41.392Z,30.20
2018-12-29T18:47:07.572Z,25.17
2018-12-29T18:49:38.379Z,24.00
2018-12-29T18:52:01.724Z,27.90
2018-12-29T18:54:27.931Z,24.20
2018-12-29T18:56:54.104Z,20.50
2018-12-29T18:59:20.220Z,17.95
2018-12-29T19:01:46.638Z,26.05
2018-12-29T19:04:12.831Z,19.77
2018-12-29T19:06:39.002Z,21.27
2018-12-29T19:09:05.403Z,19.92
2018-12-29T19:11:31.816Z,21.42
2018-12-29T19:13:58.254Z,20.02
2018-12-29T19:16:24.445Z,21.68
2018-12-29T19:18:50.613Z,23.35
2018-12-29T19:21:16.997Z,18.73
2018-12-29T19:23:45.008Z,21.23
2018-12-29T19:26:11.604Z,24.60
2018-12-29T19:28:37.887Z,18.80
2018-12-29T19:31:03.950Z,20.80
2018-12-29T19:33:30.475Z,22.67
2018-12-29T19:35:56.930Z,22.62
2018-12-29T19:38:23.106Z,23.25
2018-12-29T19:40:50.996Z,24.45
2018-12-29T19:43:17.173Z,20.57
2018-12-29T19:45:43.354Z,21.70
2018-12-29T19:48:09.519Z,22.90
2018-12-29T19:50:35.727Z,29.18
2018-12-29T19:53:01.939Z,28.05
2018-12-29T19:55:28.103Z,38.28
2018-12-29T19:57:54.290Z,149.02
2018-12-29T20:00:20.792Z,113.10
2018-12-29T20:02:47.470Z,67.67
2018-12-29T20:05:13.938Z,50.60
2018-12-29T20:07:40.033Z,31.50
2018-12-29T20:10:06.614Z,46.30
2018-12-29T20:12:32.698Z,21.62
2018-12-29T20:14:59.013Z,27.02
2018-12-29T20:17:25.155Z,24.30
2018-12-29T20:19:51.552Z,24.35
2018-12-29T20:22:17.677Z,25.02
2018-12-29T20:24:43.909Z,27.25
2018-12-29T20:27:10.076Z,25.32
2018-12-29T20:29:36.172Z,34.33
2018-12-29T20:32:02.363Z,31.55
2018-12-29T20:34:28.943Z,25.40
2018-12-29T20:36:55.033Z,34.45
2018-12-29T20:39:21.206Z,38.25
2018-12-29T20:41:47.406Z,35.78
2018-12-29T20:44:13.580Z,32.00
2018-12-29T20:46:39.764Z,36.25
2018-12-29T20:49:05.918Z,34.05
2018-12-29T20:51:32.291Z,37.17
2018-12-29T20:53:58.500Z,32.33
2018-12-29T20:56:24.678Z,38.17
2018-12-29T20:58:50.881Z,39.10
2018-12-29T21:01:17.125Z,32.40
2018-12-29T21:03:43.300Z,42.78
2018-12-29T21:06:09.525Z,36.38
2018-12-29T21:08:35.889Z,41.63
2018-12-29T21:11:02.279Z,43.83
2018-12-29T21:13:28.456Z,41.00
2018-12-29T21:15:54.639Z,47.67
2018-12-29T21:18:20.803Z,45.58
2018-12-29T21:20:47.006Z,34.38
2018-12-29T21:23:13.171Z,39.30
2018-12-29T21:25:39.581Z,45.33
2018-12-29T21:28:05.776Z,52.73
2018-12-29T21:30:31.958Z,50.23
2018-12-29T21:32:58.135Z,38.30
2018-12-29T21:35:24.312Z,47.65
2018-12-29T21:37:50.497Z,45.73
2018-12-29T21:40:16.658Z,47.05
2018-12-29T21:42:43.009Z,42.45
2018-12-29T21:45:09.140Z,42.05
2018-12-29T21:47:35.311Z,46.65
2018-12-29T21:50:01.504Z,44.38
2018-12-29T21:52:27.713Z,33.33
2018-12-29T21:54:53.963Z,39.33
2018-12-29T21:57:20.079Z,47.73
2018-12-29T21:59:46.272Z,33.02
2018-12-29T22:02:12.441Z,39.60
2018-12-29T22:04:38.607Z,38.35
2018-12-29T22:07:04.855Z,36.95
2018-12-29T22:09:31.020Z,47.05
2018-12-29T22:11:57.204Z,37.45
2018-12-29T22:14:23.418Z,37.95
2018-12-29T22:16:49.619Z,39.88
2018-12-29T22:19:15.783Z,32.50
2018-12-29T22:21:41.943Z,35.48
2018-12-29T22:24:08.136Z,42.58
2018-12-29T22:26:34.335Z,38.60
2018-12-29T22:29:00.532Z,35.85
2018-12-29T22:31:26.912Z,25.50
2018-12-29T22:33:53.111Z,44.88
2018-12-29T22:36:19.279Z,34.83
2018-12-29T22:38:45.452Z,29.20
2018-12-29T22:41:11.645Z,27.30
2018-12-29T22:43:37.818Z,33.40
2018-12-29T22:46:03.995Z,36.80
2018-12-29T22:48:30.411Z,30.88
2018-12-29T22:50:56.608Z,34.88
2018-12-29T22:53:22.775Z,27.85
2018-12-29T22:55:50.110Z,34.67
2018-12-29T22:58:16.253Z,35.65
2018-12-29T23:00:46.236Z,32.73
2018-12-29T23:03:12.516Z,31.25
2018-12-29T23:05:38.813Z,33.05
2018-12-29T23:08:05.012Z,37.58
2018-12-29T23:10:31.202Z,35.73
2018-12-29T23:12:57.672Z,33.58
2018-12-29T23:15:23.870Z,30.32
2018-12-29T23:17:50.059Z,32.53
2018-12-29T23:20:16.226Z,32.65
2018-12-29T23:22:42.382Z,25.57
2018-12-29T23:25:08.462Z,40.70
2018-12-29T23:27:34.927Z,37.03
2018-12-29T23:30:01.130Z,36.65
2018-12-29T23:32:27.270Z,44.58
2018-12-29T23:34:53.453Z,39.10
2018-12-29T23:37:19.633Z,33.08
2018-12-29T23:39:46.198Z,36.95
2018-12-29T23:42:12.405Z,41.53
2018-12-29T23:44:38.618Z,38.50
2018-12-29T23:47:04.774Z,43.98
2018-12-29T23:49:31.277Z,30.35
2018-12-29T23:51:57.847Z,29.60
2018-12-29T23:54:23.936Z,29.95
2018-12-29T23:56:50.413Z,31.73
2018-12-29T23:59:16.913Z,29.15
